createdAt,value
2022-12-29T00:00:49.553Z,74.62
2022-12-29T00:01:49.887Z,74.52
2022-12-29T00:02:50.938Z,74.33
2022-12-29T00:03:51.294Z,74.52
2022-12-29T00:04:51.428Z,74.52
2022-12-29T00:05:51.811Z,74.71
2022-12-29T00:06:53.055Z,74.62
2022-12-29T00:07:53.647Z,74.24
2022-12-29T00:08:53.892Z,74.15
2022-12-29T00:09:54.519Z,73.86
2022-12-29T00:10:55.097Z,74.52
2022-12-29T00:11:55.627Z,74.62
2022-12-29T00:12:56.296Z,74.62
2022-12-29T00:13:56.809Z,74.71
2022-12-29T00:14:57.043Z,74.81
2022-12-29T00:15:57.404Z,75.47
2022-12-29T00:16:58.071Z,74.71
2022-12-29T00:17:58.369Z,74.52
2022-12-29T00:18:58.607Z,75.24
2022-12-29T00:19:58.848Z,75.67
2022-12-29T00:20:59.919Z,75.47
2022-12-29T00:22:00.703Z,75.43
2022-12-29T00:23:01.649Z,75.34
2022-12-29T00:24:01.865Z,75.19
2022-12-29T00:25:02.096Z,75.62
2022-12-29T00:26:03.127Z,75.57
2022-12-29T00:27:03.349Z,75.43
2022-12-29T00:28:11.854Z,76.1
2022-12-29T00:29:04.661Z,75.81
2022-12-29T00:30:04.597Z,76.1
2022-12-29T00:31:05.932Z,76.1
2022-12-29T00:32:05.810Z,76.39
2022-12-29T00:33:06.347Z,76.2
2022-12-29T00:34:06.829Z,76.39
2022-12-29T00:35:07.359Z,76.2
2022-12-29T00:36:07.637Z,76.57
2022-12-29T00:37:08.518Z,76.39
2022-12-29T00:38:08.803Z,76.48
2022-12-29T00:39:09.126Z,76.48
2022-12-29T00:40:09.606Z,76.2
2022-12-29T00:41:09.933Z,76.2
2022-12-29T00:42:10.852Z,76.39
2022-12-29T00:43:11.605Z,76.1
2022-12-29T00:44:12.401Z,76.01
2022-12-29T00:45:12.475Z,76.2
2022-12-29T00:46:19.344Z,75.72
2022-12-29T00:47:13.730Z,75.72
2022-12-29T00:48:14.227Z,76.48
2022-12-29T00:49:14.764Z,76.39
2022-12-29T00:50:15.453Z,76.01
2022-12-29T00:51:16.159Z,76.01
2022-12-29T00:52:16.432Z,76.01
2022-12-29T00:53:17.146Z,75.81
2022-12-29T00:54:18.077Z,75.72
2022-12-29T00:55:18.752Z,75.91
2022-12-29T00:56:18.952Z,76.1
2022-12-29T00:57:19.871Z,76.29
2022-12-29T00:58:20.807Z,76.29
2022-12-29T00:59:23.474Z,76.29
2022-12-29T01:00:22.694Z,75.91
2022-12-29T01:01:23.307Z,76.1
2022-12-29T01:02:24.279Z,75.43
2022-12-29T01:03:24.821Z,75.43
2022-12-29T01:04:25.065Z,75.81
2022-12-29T01:05:25.077Z,75.53
2022-12-29T01:06:26.009Z,75.34
2022-12-29T01:07:27.100Z,75.43
2022-12-29T01:08:27.671Z,75.05
2022-12-29T01:09:28.312Z,75.05
2022-12-29T01:10:28.242Z,74.39
2022-12-29T01:11:28.689Z,73.54
2022-12-29T01:12:29.178Z,74.39
2022-12-29T01:13:29.908Z,74.68
2022-12-29T01:14:29.848Z,74.68
2022-12-29T01:15:31.123Z,75.09
2022-12-29T01:16:31.712Z,75.34
2022-12-29T01:17:32.271Z,75.53
2022-12-29T01:18:32.809Z,75.43
2022-12-29T01:19:33.738Z,75.72
2022-12-29T01:20:33.913Z,76.04
2022-12-29T01:21:34.618Z,76.39
2022-12-29T01:22:35.182Z,77.14
2022-12-29T01:23:35.747Z,76.67
2022-12-29T01:24:36.080Z,76.57
2022-12-29T01:25:36.295Z,76.29
2022-12-29T01:26:36.550Z,76.2
2022-12-29T01:27:38.140Z,76.57
2022-12-29T01:28:38.096Z,76.95
2022-12-29T01:29:38.025Z,75.91
2022-12-29T01:30:38.972Z,75.43
2022-12-29T01:31:39.319Z,75.53
2022-12-29T01:32:40.298Z,76.01
2022-12-29T01:33:40.550Z,76.29
2022-12-29T01:34:40.489Z,76.01
2022-12-29T01:35:41.684Z,76.39
2022-12-29T01:36:42.608Z,76.01
2022-12-29T01:37:42.563Z,75.81
2022-12-29T01:38:43.140Z,76.48
2022-12-29T01:39:43.813Z,76.57
2022-12-29T01:40:45.022Z,76.57
2022-12-29T01:41:46.084Z,76.67
2022-12-29T01:42:46.587Z,76.39
2022-12-29T01:43:47.126Z,76.67
2022-12-29T01:44:47.864Z,77.05
2022-12-29T01:45:49.211Z,76.39
2022-12-29T01:46:50.059Z,76.67
2022-12-29T01:47:50.696Z,76.76
2022-12-29T01:48:51.214Z,76.2
2022-12-29T01:49:52.192Z,75.81
2022-12-29T01:50:52.847Z,75.72
2022-12-29T01:51:53.278Z,75.43
2022-12-29T01:52:53.864Z,74.68
2022-12-29T01:53:54.467Z,74.58
2022-12-29T01:54:54.430Z,74.39
2022-12-29T01:55:55.340Z,73.72
2022-12-29T01:56:56.220Z,73.72
2022-12-29T01:57:56.445Z,73.16
2022-12-29T01:58:56.649Z,72.78
2022-12-29T01:59:57.603Z,73.29
2022-12-29T02:00:58.674Z,73.1
2022-12-29T02:01:59.280Z,73.1
2022-12-29T02:02:59.548Z,72.53
2022-12-29T02:03:59.783Z,72.53
2022-12-29T02:05:05.611Z,72.72
2022-12-29T02:06:01.415Z,72.81
2022-12-29T02:07:01.932Z,72.81
2022-12-29T02:08:02.607Z,72.72
2022-12-29T02:09:03.870Z,72.53
2022-12-29T02:10:04.129Z,72.81
2022-12-29T02:11:05.377Z,72.81
2022-12-29T02:12:05.793Z,72.72
2022-12-29T02:13:06.801Z,73.1
2022-12-29T02:14:09.470Z,72.81
2022-12-29T02:15:07.826Z,73.19
2022-12-29T02:16:09.105Z,73.29
2022-12-29T02:17:09.031Z,73.76
2022-12-29T02:18:10.266Z,73.76
2022-12-29T02:19:10.547Z,73.86
2022-12-29T02:20:11.199Z,73.57
2022-12-29T02:21:11.413Z,74.43
2022-12-29T02:22:12.605Z,74.24
2022-12-29T02:23:13.095Z,74.43
2022-12-29T02:24:14.148Z,74.24
2022-12-29T02:25:14.710Z,74.43
2022-12-29T02:26:15.037Z,74.62
2022-12-29T02:27:15.683Z,74.71
2022-12-29T02:28:16.743Z,74.24
2022-12-29T02:29:17.506Z,74.62
2022-12-29T02:30:18.644Z,74.71
2022-12-29T02:31:19.876Z,75.09
2022-12-29T02:32:20.262Z,75.38
2022-12-29T02:33:20.666Z,75
2022-12-29T02:34:21.128Z,74.96
2022-12-29T02:35:23.849Z,74.96
2022-12-29T02:36:23.821Z,74.9
2022-12-29T02:37:23.733Z,74.96
2022-12-29T02:38:24.988Z,75
2022-12-29T02:39:25.561Z,74.9
2022-12-29T02:40:26.211Z,73.76
2022-12-29T02:41:27.125Z,73.19
2022-12-29T02:42:27.886Z,73.19
2022-12-29T02:43:28.422Z,73.19
2022-12-29T02:44:29.035Z,73.1
2022-12-29T02:45:29.356Z,73.57
2022-12-29T02:46:30.266Z,73.19
2022-12-29T02:47:30.273Z,72.63
2022-12-29T02:48:30.208Z,72.91
2022-12-29T02:49:31.456Z,72.91
2022-12-29T02:50:31.672Z,73.1
2022-12-29T02:51:31.874Z,72.91
2022-12-29T02:52:33.228Z,73.38
2022-12-29T02:53:33.770Z,72.63
2022-12-29T02:54:34.012Z,72.44
2022-12-29T02:55:34.725Z,72.63
2022-12-29T02:56:35.655Z,73.1
2022-12-29T02:57:35.937Z,72.91
2022-12-29T02:58:36.164Z,72.72
2022-12-29T02:59:37.097Z,73.1
2022-12-29T03:00:37.315Z,73.29
2022-12-29T03:01:39.293Z,72.63
2022-12-29T03:02:38.608Z,73.1
2022-12-29T03:03:39.616Z,73
2022-12-29T03:04:39.261Z,73.29
2022-12-29T03:05:40.515Z,73
2022-12-29T03:06:41.172Z,73.19
2022-12-29T03:07:41.810Z,73.29
2022-12-29T03:08:42.762Z,72.72
2022-12-29T03:09:44.054Z,73.67
2022-12-29T03:10:44.305Z,73.67
2022-12-29T03:11:44.990Z,73.48
2022-12-29T03:12:45.282Z,73.67
2022-12-29T03:13:45.953Z,73.67
2022-12-29T03:14:46.612Z,73.57
2022-12-29T03:15:47.838Z,73.76
2022-12-29T03:16:48.437Z,73.67
2022-12-29T03:17:48.962Z,73.67
2022-12-29T03:18:49.954Z,73.67
2022-12-29T03:19:50.162Z,73.67
2022-12-29T03:20:50.434Z,73
2022-12-29T03:21:50.655Z,73.67
2022-12-29T03:22:51.606Z,73.76
2022-12-29T03:23:51.875Z,73.67
2022-12-29T03:24:52.472Z,73.57
2022-12-29T03:25:52.687Z,73.67
2022-12-29T03:26:53.361Z,73.57
2022-12-29T03:27:53.613Z,74.33
2022-12-29T03:28:53.582Z,73.57
2022-12-29T03:29:54.834Z,73.48
2022-12-29T03:30:55.894Z,73.96
2022-12-29T03:31:56.409Z,73.57
2022-12-29T03:32:57.480Z,73.76
2022-12-29T03:33:58.430Z,73.82
2022-12-29T03:34:59.373Z,73.57
2022-12-29T03:35:59.619Z,73.48
2022-12-29T03:37:00.616Z,73.38
2022-12-29T03:38:00.667Z,73.57
2022-12-29T03:39:00.963Z,74.33
2022-12-29T03:40:01.552Z,74.05
2022-12-29T03:41:02.125Z,73.82
2022-12-29T03:42:02.362Z,74.05
2022-12-29T03:43:02.687Z,73.57
2022-12-29T03:44:03.044Z,73.86
2022-12-29T03:45:03.482Z,74.05
2022-12-29T03:46:04.454Z,73.76
2022-12-29T03:47:04.374Z,73.76
2022-12-29T03:48:05.427Z,73.86
2022-12-29T03:49:06.636Z,73.67
2022-12-29T03:50:07.558Z,73.67
2022-12-29T03:51:07.490Z,73.48
2022-12-29T03:52:08.694Z,73.86
2022-12-29T03:53:09.184Z,73.86
2022-12-29T03:54:09.551Z,74.05
2022-12-29T03:55:10.184Z,74.2
2022-12-29T03:56:10.542Z,74.39
2022-12-29T03:57:11.252Z,74.05
2022-12-29T03:58:11.498Z,73.76
2022-12-29T03:59:12.613Z,74.33
2022-12-29T04:00:13.087Z,74.3
2022-12-29T04:01:13.709Z,74.39
2022-12-29T04:02:13.835Z,74.39
2022-12-29T04:03:15.063Z,74.68
2022-12-29T04:04:15.246Z,74.2
2022-12-29T04:05:16.139Z,74.24
2022-12-29T04:06:16.083Z,74.24
2022-12-29T04:07:16.608Z,73.76
2022-12-29T04:08:17.343Z,73.82
2022-12-29T04:09:18.315Z,73.57
2022-12-29T04:10:19.258Z,73.76
2022-12-29T04:11:19.582Z,74.43
2022-12-29T04:12:19.452Z,74.3
2022-12-29T04:13:19.759Z,73.63
2022-12-29T04:14:19.991Z,73.57
2022-12-29T04:15:20.213Z,73.57
2022-12-29T04:16:20.544Z,74.05
2022-12-29T04:17:20.740Z,74.68
2022-12-29T04:18:20.989Z,74.33
2022-12-29T04:19:23.958Z,74.15
2022-12-29T04:20:23.400Z,73.86
2022-12-29T04:21:23.803Z,73.44
2022-12-29T04:22:24.336Z,73.86
2022-12-29T04:23:25.105Z,73.54
2022-12-29T04:24:26.426Z,73.67
2022-12-29T04:25:26.713Z,73.86
2022-12-29T04:26:26.687Z,73.76
2022-12-29T04:27:27.929Z,74.52
2022-12-29T04:28:27.971Z,74.43
2022-12-29T04:29:28.256Z,74.52
2022-12-29T04:30:29.114Z,75.19
2022-12-29T04:31:30.568Z,75.95
2022-12-29T04:32:30.962Z,75.85
2022-12-29T04:33:31.132Z,76.29
2022-12-29T04:34:31.366Z,76.71
2022-12-29T04:35:31.754Z,76.76
2022-12-29T04:36:35.558Z,76.01
2022-12-29T04:37:33.491Z,75.34
2022-12-29T04:38:34.026Z,74.68
2022-12-29T04:39:34.018Z,74.68
2022-12-29T04:40:34.598Z,74.62
2022-12-29T04:41:35.296Z,75.05
2022-12-29T04:42:35.220Z,74.68
2022-12-29T04:43:35.971Z,74.43
2022-12-29T04:44:39.887Z,74.24
2022-12-29T04:45:37.180Z,74.33
2022-12-29T04:46:37.935Z,74.43
2022-12-29T04:47:39.793Z,73.96
2022-12-29T04:48:39.830Z,73.86
2022-12-29T04:49:40.064Z,73.57
2022-12-29T04:50:40.282Z,73.86
2022-12-29T04:51:40.504Z,73.57
2022-12-29T04:52:40.708Z,73.67
2022-12-29T04:53:40.755Z,73.67
2022-12-29T04:54:42.016Z,73.1
2022-12-29T04:55:42.364Z,72.63
2022-12-29T04:56:42.557Z,73.1
2022-12-29T04:57:43.771Z,73.1
2022-12-29T04:58:44.002Z,73.19
2022-12-29T04:59:44.532Z,73
2022-12-29T05:00:45.026Z,73
2022-12-29T05:01:46.007Z,73
2022-12-29T05:02:46.867Z,72.63
2022-12-29T05:03:46.980Z,72.44
2022-12-29T05:04:47.890Z,72.63
2022-12-29T05:05:48.102Z,72.63
2022-12-29T05:06:49.087Z,72.53
2022-12-29T05:07:49.741Z,72.53
2022-12-29T05:08:50.719Z,72.63
2022-12-29T05:09:51.417Z,72.34
2022-12-29T05:10:52.779Z,71.96
2022-12-29T05:11:52.994Z,72.34
2022-12-29T05:12:52.930Z,72.63
2022-12-29T05:13:53.936Z,72.81
2022-12-29T05:14:54.870Z,72.06
2022-12-29T05:15:54.982Z,72.25
2022-12-29T05:16:55.490Z,72.06
2022-12-29T05:17:56.448Z,71.86
2022-12-29T05:18:57.048Z,71.86
2022-12-29T05:19:57.289Z,71.67
2022-12-29T05:20:57.936Z,71.67
2022-12-29T05:21:59.158Z,71.11
2022-12-29T05:22:59.663Z,71.48
2022-12-29T05:24:00.372Z,71.2
2022-12-29T05:25:01.100Z,70.92
2022-12-29T05:26:02.111Z,70.63
2022-12-29T05:27:03.111Z,69.96
2022-12-29T05:28:03.630Z,70.15
2022-12-29T05:29:04.178Z,70.06
2022-12-29T05:30:04.480Z,69.96
2022-12-29T05:31:05.155Z,70.06
2022-12-29T05:32:06.085Z,70.15
2022-12-29T05:33:07.007Z,70.06
2022-12-29T05:34:07.989Z,70.25
2022-12-29T05:35:08.582Z,70.25
2022-12-29T05:36:08.878Z,69.96
2022-12-29T05:37:10.112Z,69.96
2022-12-29T05:38:10.637Z,70.25
2022-12-29T05:39:11.148Z,69.91
2022-12-29T05:40:13.072Z,70.06
2022-12-29T05:41:13.189Z,69.71
2022-12-29T05:42:13.385Z,69.53
2022-12-29T05:43:14.573Z,69.62
2022-12-29T05:44:14.987Z,70.29
2022-12-29T05:45:14.917Z,70.48
2022-12-29T05:46:15.752Z,70.86
2022-12-29T05:47:16.674Z,70.76
2022-12-29T05:48:17.309Z,70.76
2022-12-29T05:49:17.638Z,71.14
2022-12-29T05:50:19.186Z,70.76
2022-12-29T05:51:19.891Z,70.67
2022-12-29T05:52:20.110Z,70.29
2022-12-29T05:53:21.028Z,69.91
2022-12-29T05:54:22.084Z,70.67
2022-12-29T05:55:24.140Z,70.67
2022-12-29T05:56:23.738Z,70.1
2022-12-29T05:57:24.215Z,69.53
2022-12-29T05:58:24.901Z,69.71
2022-12-29T05:59:25.815Z,69.43
2022-12-29T06:00:26.047Z,69.24
2022-12-29T06:01:26.423Z,68.86
2022-12-29T06:02:27.159Z,68.58
2022-12-29T06:03:27.267Z,68.67
2022-12-29T06:04:27.773Z,69.05
2022-12-29T06:05:28.680Z,69.15
2022-12-29T06:06:29.173Z,68.29
2022-12-29T06:07:29.323Z,68.1
2022-12-29T06:08:29.830Z,68.39
2022-12-29T06:09:30.194Z,68.29
2022-12-29T06:10:30.441Z,68.1
2022-12-29T06:11:31.029Z,68.29
2022-12-29T06:12:31.898Z,68.29
2022-12-29T06:13:32.122Z,68.29
2022-12-29T06:14:32.273Z,68.29
2022-12-29T06:15:33.197Z,67.91
2022-12-29T06:16:33.363Z,68.19
2022-12-29T06:17:34.077Z,68.58
2022-12-29T06:18:34.573Z,68.29
2022-12-29T06:19:34.525Z,68.29
2022-12-29T06:20:35.782Z,67.82
2022-12-29T06:21:36.418Z,68.19
2022-12-29T06:22:37.639Z,68.29
2022-12-29T06:23:38.390Z,68.01
2022-12-29T06:24:39.194Z,67.82
2022-12-29T06:25:40.176Z,68.48
2022-12-29T06:26:40.811Z,67.82
2022-12-29T06:27:41.330Z,68.1
2022-12-29T06:28:41.714Z,68.48
2022-12-29T06:29:41.912Z,68.1
2022-12-29T06:30:41.864Z,68.01
2022-12-29T06:31:42.590Z,68.01
2022-12-29T06:32:42.998Z,67.53
2022-12-29T06:33:47.185Z,67.91
2022-12-29T06:34:44.551Z,68.19
2022-12-29T06:35:44.970Z,67.72
2022-12-29T06:36:45.366Z,67.34
2022-12-29T06:37:46.322Z,68.01
2022-12-29T06:38:46.439Z,68.1
2022-12-29T06:39:46.680Z,67.53
2022-12-29T06:40:47.205Z,67.63
2022-12-29T06:41:47.476Z,68.1
2022-12-29T06:42:48.117Z,68.1
2022-12-29T06:43:49.043Z,67.91
2022-12-29T06:44:50.095Z,67.82
2022-12-29T06:45:50.777Z,68.1
2022-12-29T06:46:51.610Z,67.53
2022-12-29T06:47:51.535Z,67.53
2022-12-29T06:48:51.792Z,67.82
2022-12-29T06:49:52.307Z,68.01
2022-12-29T06:50:52.865Z,68.01
2022-12-29T06:51:53.808Z,67.82
2022-12-29T06:52:54.479Z,68.19
2022-12-29T06:53:54.694Z,68.29
2022-12-29T06:54:55.220Z,68.29
2022-12-29T06:55:56.169Z,68.29
2022-12-29T06:56:56.747Z,68.01
2022-12-29T06:57:56.957Z,67.91
2022-12-29T06:58:57.931Z,68.1
2022-12-29T06:59:58.472Z,67.91
2022-12-29T07:00:58.797Z,68.1
2022-12-29T07:01:59.342Z,68.19
2022-12-29T07:03:00.136Z,68.29
2022-12-29T07:04:00.818Z,68.01
2022-12-29T07:05:01.802Z,68.01
2022-12-29T07:06:02.032Z,67.63
2022-12-29T07:07:02.550Z,66.96
2022-12-29T07:08:02.897Z,66.96
2022-12-29T07:09:02.954Z,67.06
2022-12-29T07:10:03.914Z,66.87
2022-12-29T07:11:04.329Z,66.87
2022-12-29T07:12:05.365Z,66.77
2022-12-29T07:13:06.188Z,66.58
2022-12-29T07:14:09.984Z,66.87
2022-12-29T07:15:06.437Z,67.06
2022-12-29T07:16:06.958Z,66.77
2022-12-29T07:17:07.976Z,66.96
2022-12-29T07:18:07.745Z,67.34
2022-12-29T07:19:08.278Z,67.63
2022-12-29T07:20:09.217Z,67.25
2022-12-29T07:21:10.540Z,67.06
2022-12-29T07:22:11.479Z,68.01
2022-12-29T07:23:12.402Z,68.01
2022-12-29T07:24:13.638Z,67.44
2022-12-29T07:25:14.168Z,67.82
2022-12-29T07:26:14.936Z,67.82
2022-12-29T07:27:15.418Z,68.29
2022-12-29T07:28:16.098Z,68.58
2022-12-29T07:29:16.291Z,68.39
2022-12-29T07:30:17.407Z,68.1
2022-12-29T07:31:17.579Z,67.44
2022-12-29T07:32:18.097Z,67.44
2022-12-29T07:33:19.117Z,67.15
2022-12-29T07:34:19.476Z,66.96
2022-12-29T07:35:20.243Z,67.15
2022-12-29T07:36:20.484Z,67.25
2022-12-29T07:37:22.839Z,67.06
2022-12-29T07:38:21.797Z,67.25
2022-12-29T07:39:21.943Z,67.15
2022-12-29T07:40:22.782Z,66.77
2022-12-29T07:41:22.770Z,67.25
2022-12-29T07:42:23.604Z,67.72
2022-12-29T07:43:23.815Z,67.82
2022-12-29T07:44:24.445Z,67.72
2022-12-29T07:45:24.835Z,68.1
2022-12-29T07:47:02.491Z,68.01
2022-12-29T07:47:26.941Z,68.19
2022-12-29T07:48:27.295Z,67.25
2022-12-29T07:49:28.547Z,66.87
2022-12-29T07:50:29.510Z,67.25
2022-12-29T07:51:29.749Z,67.06
2022-12-29T07:52:30.037Z,66.58
2022-12-29T07:53:30.538Z,66.77
2022-12-29T07:54:30.746Z,66.67
2022-12-29T07:55:31.606Z,66.2
2022-12-29T07:56:31.887Z,65.73
2022-12-29T07:57:37.614Z,65.63
2022-12-29T07:58:33.107Z,65.44
2022-12-29T07:59:33.597Z,65.54
2022-12-29T08:00:34.334Z,65.44
2022-12-29T08:01:35.226Z,65.67
2022-12-29T08:02:35.363Z,65.09
2022-12-29T08:03:35.746Z,65
2022-12-29T08:04:36.448Z,64.72
2022-12-29T08:05:37.512Z,63.76
2022-12-29T08:06:37.484Z,64.05
2022-12-29T08:07:38.442Z,63.76
2022-12-29T08:08:39.417Z,64.14
2022-12-29T08:09:40.087Z,64.14
2022-12-29T08:10:40.781Z,64.34
2022-12-29T08:11:41.508Z,64.72
2022-12-29T08:12:41.807Z,64.53
2022-12-29T08:13:42.739Z,64.24
2022-12-29T08:14:43.768Z,64.62
2022-12-29T08:15:43.875Z,64.72
2022-12-29T08:16:44.361Z,64.43
2022-12-29T08:17:45.314Z,64.43
2022-12-29T08:18:46.547Z,64.43
2022-12-29T08:19:47.499Z,64.43
2022-12-29T08:20:51.137Z,64.72
2022-12-29T08:21:48.395Z,65.47
2022-12-29T08:22:48.901Z,65.09
2022-12-29T08:23:49.114Z,65.09
2022-12-29T08:24:50.002Z,65.86
2022-12-29T08:25:50.673Z,65.67
2022-12-29T08:26:51.341Z,65.38
2022-12-29T08:27:52.217Z,65.19
2022-12-29T08:28:53.171Z,64.72
2022-12-29T08:29:53.550Z,64.46
2022-12-29T08:30:54.053Z,64.65
2022-12-29T08:31:54.928Z,65.19
2022-12-29T08:32:54.871Z,65.57
2022-12-29T08:33:55.500Z,65.76
2022-12-29T08:34:56.144Z,65.09
2022-12-29T08:35:56.886Z,64.9
2022-12-29T08:36:56.858Z,65.67
2022-12-29T08:37:57.501Z,65.47
2022-12-29T08:38:58.543Z,65.47
2022-12-29T08:39:59.180Z,64.24
2022-12-29T08:40:59.457Z,65
2022-12-29T08:41:59.978Z,65.09
2022-12-29T08:43:00.583Z,65.19
2022-12-29T08:44:01.277Z,65.09
2022-12-29T08:45:01.843Z,65.09
2022-12-29T08:46:02.432Z,64.43
2022-12-29T08:47:02.466Z,64.24
2022-12-29T08:48:03.123Z,64.27
2022-12-29T08:49:03.616Z,64.27
2022-12-29T08:50:03.535Z,64.18
2022-12-29T08:51:04.512Z,63.7
2022-12-29T08:52:05.208Z,63.79
2022-12-29T08:53:05.441Z,63.89
2022-12-29T08:54:05.669Z,63.7
2022-12-29T08:55:05.911Z,63.51
2022-12-29T08:56:10.854Z,63.32
2022-12-29T08:57:07.587Z,63.23
2022-12-29T08:58:08.152Z,63.42
2022-12-29T08:59:08.542Z,64.08
2022-12-29T09:00:09.048Z,64.27
2022-12-29T09:01:09.374Z,64.18
2022-12-29T09:02:09.811Z,64.27
2022-12-29T09:03:11.004Z,64.31
2022-12-29T09:04:22.401Z,64.59
2022-12-29T09:05:21.417Z,64.5
2022-12-29T09:06:21.496Z,64.69
2022-12-29T09:07:21.999Z,64.69
2022-12-29T09:08:30.971Z,64.5
2022-12-29T09:09:23.924Z,64.59
2022-12-29T09:10:24.102Z,64.31
2022-12-29T09:11:25.107Z,64.02
2022-12-29T09:12:25.788Z,63.64
2022-12-29T09:13:26.517Z,62.97
2022-12-29T09:14:26.459Z,62.12
2022-12-29T09:15:27.411Z,61.67
2022-12-29T09:16:28.001Z,61.58
2022-12-29T09:17:28.303Z,60.82
2022-12-29T09:18:29.634Z,60.91
2022-12-29T09:19:28.850Z,60.66
2022-12-29T09:20:29.828Z,60.56
2022-12-29T09:21:30.381Z,59.83
2022-12-29T09:22:31.204Z,59.61
2022-12-29T09:23:32.448Z,59.26
2022-12-29T09:24:33.119Z,59.26
2022-12-29T09:25:33.800Z,59.64
2022-12-29T09:26:34.869Z,58.78
2022-12-29T09:27:35.943Z,58.02
2022-12-29T09:28:36.528Z,58.4
2022-12-29T09:29:37.022Z,59.06
2022-12-29T09:30:37.518Z,59.54
2022-12-29T09:31:38.331Z,60.02
2022-12-29T09:32:44.732Z,59.35
2022-12-29T09:33:39.255Z,58.97
2022-12-29T09:34:39.230Z,58.5
2022-12-29T09:35:40.270Z,58.02
2022-12-29T09:36:41.551Z,58.4
2022-12-29T09:37:42.105Z,58.11
2022-12-29T09:38:42.373Z,57.64
2022-12-29T09:39:42.624Z,58.59
2022-12-29T09:40:43.006Z,59.16
2022-12-29T09:41:43.941Z,59.16
2022-12-29T09:42:44.477Z,58.78
2022-12-29T09:43:44.809Z,59
2022-12-29T09:44:45.237Z,58.04
2022-12-29T09:45:46.175Z,58.04
2022-12-29T09:46:47.668Z,58.43
2022-12-29T09:47:48.467Z,57.28
2022-12-29T09:48:49.406Z,56.9
2022-12-29T09:49:49.678Z,57.09
2022-12-29T09:50:50.620Z,57.19
2022-12-29T09:51:51.669Z,56.97
2022-12-29T09:52:52.200Z,57.45
2022-12-29T09:53:52.695Z,57.82
2022-12-29T09:55:05.188Z,57.73
2022-12-29T09:55:54.608Z,57.82
2022-12-29T09:56:54.964Z,57.35
2022-12-29T09:57:54.956Z,57.73
2022-12-29T09:58:56.287Z,57.73
2022-12-29T09:59:57.234Z,57.73
2022-12-29T10:01:00.851Z,57.54
2022-12-29T10:01:58.581Z,57.26
2022-12-29T10:02:58.465Z,57.35
2022-12-29T10:03:59.008Z,57.45
2022-12-29T10:04:59.967Z,57.26
2022-12-29T10:06:00.964Z,57.07
2022-12-29T10:07:36.764Z,56.87
2022-12-29T10:08:37.064Z,56.9
2022-12-29T10:09:37.294Z,56.9
2022-12-29T10:10:37.546Z,57.09
2022-12-29T10:11:37.521Z,57.57
2022-12-29T10:12:38.205Z,57.09
2022-12-29T10:13:39.177Z,56.81
2022-12-29T10:14:39.705Z,57
2022-12-29T10:15:39.647Z,57.09
2022-12-29T10:16:40.557Z,56.9
2022-12-29T10:17:40.467Z,57.09
2022-12-29T10:18:41.455Z,57.76
2022-12-29T10:19:42.811Z,58.14
2022-12-29T10:20:43.045Z,58.62
2022-12-29T10:21:43.298Z,58.33
2022-12-29T10:22:43.219Z,57.67
2022-12-29T10:23:44.212Z,57.57
2022-12-29T10:24:45.260Z,57.28
2022-12-29T10:25:45.780Z,56.9
2022-12-29T10:26:46.320Z,56.81
2022-12-29T10:27:47.377Z,57.48
2022-12-29T10:28:48.491Z,57.28
2022-12-29T10:29:49.087Z,57
2022-12-29T10:30:49.327Z,56.9
2022-12-29T10:31:49.996Z,57.48
2022-12-29T10:32:50.783Z,57.19
2022-12-29T10:33:51.298Z,56.71
2022-12-29T10:34:51.226Z,57.19
2022-12-29T10:35:52.436Z,56.9
2022-12-29T10:36:52.662Z,57.57
2022-12-29T10:37:53.505Z,57.28
2022-12-29T10:38:53.740Z,57
2022-12-29T10:39:53.670Z,57.76
2022-12-29T10:40:54.913Z,57.64
2022-12-29T10:41:55.153Z,57.82
2022-12-29T10:42:55.425Z,57.54
2022-12-29T10:43:55.773Z,58.87
2022-12-29T10:44:56.344Z,58.02
2022-12-29T10:45:57.434Z,58.21
2022-12-29T10:46:57.992Z,58.3
2022-12-29T10:47:59.065Z,58.02
2022-12-29T10:48:59.617Z,57.64
2022-12-29T10:50:00.169Z,57.82
2022-12-29T10:51:06.907Z,57.73
2022-12-29T10:52:01.864Z,57.73
2022-12-29T10:53:02.428Z,57.26
2022-12-29T10:54:03.464Z,57.54
2022-12-29T10:55:04.444Z,57.82
2022-12-29T10:56:04.699Z,57.73
2022-12-29T10:57:04.930Z,57.54
2022-12-29T10:58:05.701Z,57.07
2022-12-29T10:59:06.241Z,57.07
2022-12-29T11:00:06.807Z,57.07
2022-12-29T11:01:07.320Z,57.07
2022-12-29T11:02:08.515Z,57.54
2022-12-29T11:03:08.754Z,57.54
2022-12-29T11:04:09.058Z,57.73
2022-12-29T11:05:09.557Z,57.64
2022-12-29T11:06:10.120Z,57.16
2022-12-29T11:07:15.773Z,57.26
2022-12-29T11:08:11.556Z,57.45
2022-12-29T11:09:11.829Z,57.07
2022-12-29T11:10:12.386Z,56.97
2022-12-29T11:11:13.324Z,57.35
2022-12-29T11:12:13.551Z,57.07
2022-12-29T11:13:14.075Z,57.64
2022-12-29T11:14:14.760Z,58.02
2022-12-29T11:15:15.343Z,58.87
2022-12-29T11:16:15.972Z,59.64
2022-12-29T11:17:16.854Z,58.87
2022-12-29T11:18:17.578Z,58.11
2022-12-29T11:19:17.525Z,58.4
2022-12-29T11:20:18.025Z,58.21
2022-12-29T11:21:18.684Z,58.43
2022-12-29T11:22:19.925Z,58.43
2022-12-29T11:23:20.580Z,58.43
2022-12-29T11:24:20.821Z,57.95
2022-12-29T11:25:22.067Z,57.67
2022-12-29T11:26:22.310Z,58.43
2022-12-29T11:27:22.691Z,57.76
2022-12-29T11:28:23.076Z,59.09
2022-12-29T11:29:23.621Z,58.43
2022-12-29T11:30:24.202Z,57.76
2022-12-29T11:31:25.244Z,57.57
2022-12-29T11:32:33.341Z,58.43
2022-12-29T11:33:26.280Z,57.48
2022-12-29T11:34:26.231Z,57.48
2022-12-29T11:35:26.772Z,57
2022-12-29T11:36:27.057Z,56.78
2022-12-29T11:37:28.308Z,57.26
2022-12-29T11:38:29.071Z,56.81
2022-12-29T11:39:29.325Z,56.97
2022-12-29T11:40:29.695Z,57.26
2022-12-29T11:41:30.623Z,56.02
2022-12-29T11:42:31.564Z,55.63
2022-12-29T11:43:31.510Z,55.63
2022-12-29T11:44:32.747Z,55.07
2022-12-29T11:45:33.521Z,55.92
2022-12-29T11:46:34.341Z,55.76
2022-12-29T11:47:34.500Z,55.76
2022-12-29T11:48:35.162Z,55.47
2022-12-29T11:49:35.403Z,55.09
2022-12-29T11:50:35.622Z,55.28
2022-12-29T11:51:35.830Z,55.66
2022-12-29T11:52:36.783Z,55.47
2022-12-29T11:53:37.434Z,55.57
2022-12-29T11:54:37.695Z,55.57
2022-12-29T11:55:38.344Z,55.47
2022-12-29T11:56:45.579Z,55.57
2022-12-29T11:57:39.815Z,55.95
2022-12-29T11:58:40.599Z,56.14
2022-12-29T11:59:41.132Z,55.76
2022-12-29T12:00:41.439Z,55.66
2022-12-29T12:01:42.076Z,55.66
2022-12-29T12:02:48.550Z,56.14
2022-12-29T12:03:43.328Z,56.14
2022-12-29T12:04:43.864Z,55.88
2022-12-29T12:05:44.810Z,55.76
2022-12-29T12:06:45.544Z,55.79
2022-12-29T12:07:45.899Z,55.02
2022-12-29T12:08:46.695Z,55.21
2022-12-29T12:09:46.934Z,54.83
2022-12-29T12:10:47.687Z,54.74
2022-12-29T12:11:48.673Z,54.36
2022-12-29T12:12:49.353Z,54.74
2022-12-29T12:13:50.367Z,54.55
2022-12-29T12:14:50.651Z,54.74
2022-12-29T12:15:56.894Z,54.83
2022-12-29T12:16:51.788Z,54.26
2022-12-29T12:17:52.231Z,54.38
2022-12-29T12:18:53.260Z,53.81
2022-12-29T12:19:54.215Z,53.72
2022-12-29T12:20:54.469Z,53.62
2022-12-29T12:21:54.969Z,53.81
2022-12-29T12:22:55.905Z,53.45
2022-12-29T12:23:56.187Z,52.4
2022-12-29T12:24:56.721Z,52.59
2022-12-29T12:25:56.981Z,52.59
2022-12-29T12:26:57.937Z,52.4
2022-12-29T12:27:58.187Z,52.22
2022-12-29T12:28:58.950Z,51.35
2022-12-29T12:29:59.921Z,51.07
2022-12-29T12:31:00.670Z,51
2022-12-29T12:32:01.381Z,50.9
2022-12-29T12:33:01.654Z,50.81
2022-12-29T12:34:02.386Z,50.81
2022-12-29T12:35:03.113Z,50.24
2022-12-29T12:36:04.121Z,50.26
2022-12-29T12:37:04.349Z,49.78
2022-12-29T12:38:05.353Z,50.35
2022-12-29T12:39:05.154Z,49.69
2022-12-29T12:40:06.153Z,49.49
2022-12-29T12:41:06.565Z,49.33
2022-12-29T12:42:07.113Z,49.52
2022-12-29T12:43:06.992Z,49.14
2022-12-29T12:44:08.263Z,48.97
2022-12-29T12:45:08.545Z,50.7
2022-12-29T12:46:08.959Z,49.35
2022-12-29T12:47:09.824Z,48.39
2022-12-29T12:48:10.062Z,47.66
2022-12-29T12:49:10.489Z,48.23
2022-12-29T12:50:11.517Z,48.02
2022-12-29T12:51:12.131Z,48.02
2022-12-29T12:52:12.880Z,47.92
2022-12-29T12:53:13.880Z,48.49
2022-12-29T12:54:14.864Z,48.39
2022-12-29T12:55:14.853Z,48.13
2022-12-29T12:56:15.694Z,48.39
2022-12-29T12:57:16.353Z,48.61
2022-12-29T12:58:17.312Z,47.37
2022-12-29T12:59:17.591Z,48.23
2022-12-29T13:00:18.263Z,47.73
2022-12-29T13:01:19.079Z,48.33
2022-12-29T13:02:19.935Z,48.23
2022-12-29T13:03:20.901Z,47.56
2022-12-29T13:04:21.317Z,47.47
2022-12-29T13:05:27.857Z,46.89